createdAt,value
2023-05-03T00:00:00.351Z,6.85
2023-05-03T00:02:28.877Z,7.03
2023-05-03T00:04:57.283Z,7.38
2023-05-03T00:07:26.730Z,8.65
2023-05-03T00:09:54.644Z,7.57
2023-05-03T00:12:22.625Z,9.38
2023-05-03T00:14:50.677Z,9.27
2023-05-03T00:17:18.622Z,8.48
2023-05-03T00:19:46.570Z,8.35
2023-05-03T00:22:14.506Z,7.10
2023-05-03T00:24:43.841Z,6.30
2023-05-03T00:27:11.777Z,6.68
2023-05-03T00:29:39.707Z,6.70
2023-05-03T00:32:07.856Z,6.38
2023-05-03T00:34:36.150Z,6.10
2023-05-03T00:37:04.347Z,5.55
2023-05-03T00:39:32.485Z,6.30
2023-05-03T00:42:02.584Z,7.88
2023-05-03T00:44:30.622Z,7.13
2023-05-03T00:46:59.030Z,6.45
2023-05-03T00:49:27.105Z,7.18
2023-05-03T00:51:55.366Z,6.57
2023-05-03T00:54:24.629Z,6.57
2023-05-03T00:56:52.789Z,7.90
2023-05-03T00:59:22.278Z,6.40
2023-05-03T01:01:51.203Z,5.97
2023-05-03T01:04:20.223Z,6.40
2023-05-03T01:06:59.336Z,6.78
2023-05-03T01:09:36.411Z,6.38
2023-05-03T01:12:15.864Z,7.35
2023-05-03T01:14:54.404Z,7.82
2023-05-03T01:17:29.257Z,6.57
2023-05-03T01:20:04.985Z,8.23
2023-05-03T01:22:40.807Z,7.90
2023-05-03T01:25:11.367Z,8.82
2023-05-03T01:27:40.244Z,7.90
2023-05-03T01:30:11.501Z,7.30
2023-05-03T01:32:51.776Z,9.00
2023-05-03T01:35:38.012Z,5.97
2023-05-03T01:38:06.540Z,5.95
2023-05-03T01:40:42.020Z,6.97
2023-05-03T01:43:12.302Z,7.47
2023-05-03T01:45:40.722Z,8.70
2023-05-03T01:48:12.501Z,7.00
2023-05-03T01:50:40.472Z,6.18
2023-05-03T01:53:08.619Z,6.57
2023-05-03T01:55:37.951Z,6.75
2023-05-03T01:58:06.308Z,6.53
2023-05-03T02:00:34.340Z,6.30
2023-05-03T02:03:02.322Z,6.28
2023-05-03T02:05:30.552Z,6.47
2023-05-03T02:07:58.514Z,6.88
2023-05-03T02:10:26.506Z,7.50
2023-05-03T02:12:55.881Z,5.40
2023-05-03T02:15:23.792Z,6.22
2023-05-03T02:17:51.746Z,6.70
2023-05-03T02:20:19.723Z,5.68
2023-05-03T02:22:47.695Z,5.65
2023-05-03T02:25:15.677Z,5.93
2023-05-03T02:27:43.616Z,6.88
2023-05-03T02:30:13.796Z,6.97
2023-05-03T02:32:41.909Z,6.95
2023-05-03T02:35:10.359Z,7.18
2023-05-03T02:37:38.343Z,8.02
2023-05-03T02:40:07.288Z,6.75
2023-05-03T02:42:35.277Z,9.75
2023-05-03T02:45:03.423Z,7.30
2023-05-03T02:47:32.869Z,8.13
2023-05-03T02:50:01.035Z,10.10
2023-05-03T02:52:29.298Z,11.27
2023-05-03T02:54:57.354Z,12.23
2023-05-03T02:57:25.693Z,12.02
2023-05-03T02:59:53.660Z,12.55
2023-05-03T03:02:22.187Z,13.88
2023-05-03T03:04:51.513Z,15.80
2023-05-03T03:07:19.458Z,16.08
2023-05-03T03:09:47.384Z,13.35
2023-05-03T03:12:15.553Z,16.60
2023-05-03T03:14:45.747Z,13.40
2023-05-03T03:17:13.963Z,15.50
2023-05-03T03:19:41.886Z,14.20
2023-05-03T03:22:11.214Z,15.88
2023-05-03T03:24:39.726Z,16.15
2023-05-03T03:27:07.665Z,15.25
2023-05-03T03:29:36.692Z,17.17
2023-05-03T03:32:04.814Z,15.80
2023-05-03T03:34:33.183Z,15.48
2023-05-03T03:37:01.134Z,15.15
2023-05-03T03:39:30.436Z,14.70
2023-05-03T03:41:58.393Z,16.48
2023-05-03T03:44:26.381Z,14.30
2023-05-03T03:46:54.337Z,13.00
2023-05-03T03:49:22.298Z,13.13
2023-05-03T03:51:50.269Z,11.15
2023-05-03T03:54:18.228Z,11.25
2023-05-03T03:56:47.508Z,13.40
2023-05-03T03:59:15.703Z,13.23
2023-05-03T04:01:43.618Z,15.82
2023-05-03T04:04:11.770Z,15.13
2023-05-03T04:06:39.786Z,16.65
2023-05-03T04:09:07.722Z,18.90
2023-05-03T04:11:35.628Z,19.83
2023-05-03T04:14:05.063Z,18.38
2023-05-03T04:16:33.039Z,17.73
2023-05-03T04:19:02.489Z,18.23
2023-05-03T04:21:30.407Z,18.38
2023-05-03T04:23:58.613Z,17.10
2023-05-03T04:26:31.436Z,15.90
2023-05-03T04:29:00.529Z,15.15
2023-05-03T04:31:30.149Z,16.00
2023-05-03T04:33:58.163Z,14.40
2023-05-03T04:36:26.776Z,13.75
2023-05-03T04:38:54.701Z,14.40
2023-05-03T04:41:22.887Z,19.00
2023-05-03T04:43:50.963Z,17.48
2023-05-03T04:46:19.403Z,19.90
2023-05-03T04:48:48.830Z,19.23
2023-05-03T04:51:16.752Z,20.83
2023-05-03T04:53:44.659Z,17.90
2023-05-03T04:56:12.551Z,19.15
2023-05-03T04:58:40.500Z,23.52
2023-05-03T05:01:08.485Z,15.75
2023-05-03T05:03:36.555Z,19.52
2023-05-03T05:06:07.047Z,17.38
2023-05-03T05:08:34.998Z,21.23
2023-05-03T05:11:03.955Z,20.38
2023-05-03T05:13:32.043Z,20.63
2023-05-03T05:15:59.948Z,20.17
2023-05-03T05:18:27.938Z,20.58
2023-05-03T05:20:56.581Z,20.20
2023-05-03T05:23:25.929Z,18.90
2023-05-03T05:25:54.273Z,21.98
2023-05-03T05:28:22.202Z,19.77
2023-05-03T05:30:50.302Z,19.77
2023-05-03T05:33:19.365Z,19.13
2023-05-03T05:35:48.809Z,17.88
2023-05-03T05:38:18.489Z,20.75
2023-05-03T05:40:47.791Z,21.02
2023-05-03T05:43:15.771Z,20.52
2023-05-03T05:45:43.756Z,20.45
2023-05-03T05:48:11.734Z,19.08
2023-05-03T05:50:39.702Z,18.15
2023-05-03T05:53:09.158Z,18.55
2023-05-03T05:55:37.139Z,19.45
2023-05-03T05:58:06.697Z,17.85
2023-05-03T06:00:35.126Z,18.05
2023-05-03T06:03:03.144Z,16.52
2023-05-03T06:05:31.148Z,17.88
2023-05-03T06:08:07.939Z,18.10
2023-05-03T06:10:42.301Z,18.20
2023-05-03T06:13:16.942Z,17.08
2023-05-03T06:15:45.705Z,18.60
2023-05-03T06:18:14.632Z,20.25
2023-05-03T06:20:43.623Z,18.88
2023-05-03T06:23:14.025Z,17.13
2023-05-03T06:25:41.967Z,19.15
2023-05-03T06:28:11.290Z,18.67
2023-05-03T06:30:39.248Z,18.88
2023-05-03T06:33:07.310Z,17.40
2023-05-03T06:35:38.212Z,20.13
2023-05-03T06:38:06.182Z,17.67
2023-05-03T06:40:35.088Z,18.15
2023-05-03T06:43:04.537Z,17.90
2023-05-03T06:45:34.034Z,18.52
2023-05-03T06:48:02.080Z,18.08
2023-05-03T06:50:30.078Z,19.02
2023-05-03T06:52:58.021Z,17.92
2023-05-03T06:55:25.943Z,18.90
2023-05-03T06:57:53.928Z,18.15
2023-05-03T07:00:23.332Z,19.60
2023-05-03T07:02:52.896Z,19.55
2023-05-03T07:05:20.987Z,17.48
2023-05-03T07:07:48.960Z,18.05
2023-05-03T07:10:16.912Z,17.80
2023-05-03T07:12:44.837Z,18.58
2023-05-03T07:15:12.934Z,17.75
2023-05-03T07:17:40.894Z,19.48
2023-05-03T07:20:11.201Z,18.13
2023-05-03T07:22:39.132Z,18.15
2023-05-03T07:25:08.269Z,18.33
2023-05-03T07:27:36.288Z,16.42
2023-05-03T07:30:05.132Z,17.65
2023-05-03T07:32:33.776Z,17.52
2023-05-03T07:35:01.739Z,17.95
2023-05-03T07:37:31.573Z,18.90
2023-05-03T07:39:59.542Z,18.77
2023-05-03T07:42:27.499Z,18.33
2023-05-03T07:44:55.853Z,17.70
2023-05-03T07:47:23.828Z,18.27
2023-05-03T07:49:51.889Z,19.45
2023-05-03T07:52:19.924Z,20.27
2023-05-03T07:54:49.261Z,23.52
2023-05-03T07:57:17.565Z,19.33
2023-05-03T07:59:45.489Z,19.35
2023-05-03T08:02:13.506Z,19.30
2023-05-03T08:04:42.074Z,17.52
2023-05-03T08:07:10.170Z,18.38
2023-05-03T08:09:38.275Z,18.60
2023-05-03T08:12:07.913Z,18.90
2023-05-03T08:14:37.194Z,20.25
2023-05-03T08:17:06.033Z,18.85
2023-05-03T08:19:33.960Z,19.17
2023-05-03T08:22:03.126Z,18.38
2023-05-03T08:24:31.301Z,17.10
2023-05-03T08:26:59.231Z,19.08
2023-05-03T08:29:28.591Z,18.25
2023-05-03T08:31:58.044Z,16.48
2023-05-03T08:34:26.443Z,17.80
2023-05-03T08:36:54.310Z,18.42
2023-05-03T08:39:25.597Z,19.70
2023-05-03T08:41:54.847Z,19.25
2023-05-03T08:44:26.070Z,18.48
2023-05-03T08:46:55.741Z,18.75
2023-05-03T08:49:23.812Z,19.02
2023-05-03T08:51:52.919Z,18.70
2023-05-03T08:54:22.109Z,17.95
2023-05-03T08:56:50.797Z,18.95
2023-05-03T08:59:18.775Z,19.15
2023-05-03T09:01:46.756Z,17.60
2023-05-03T09:04:17.435Z,18.23
2023-05-03T09:06:45.494Z,19.10
2023-05-03T09:09:14.283Z,19.42
2023-05-03T09:11:42.270Z,18.45
2023-05-03T09:14:11.998Z,17.80
2023-05-03T09:16:47.820Z,19.30
2023-05-03T09:19:17.569Z,18.95
2023-05-03T09:21:47.299Z,17.80
2023-05-03T09:24:16.474Z,18.23
2023-05-03T09:26:45.729Z,18.45
2023-05-03T09:29:29.137Z,19.73
2023-05-03T09:32:01.580Z,18.33
2023-05-03T09:34:31.847Z,19.80
2023-05-03T09:37:00.256Z,18.13
2023-05-03T09:39:28.549Z,17.50
2023-05-03T09:41:56.974Z,18.83
2023-05-03T09:44:41.996Z,19.33
2023-05-03T09:47:10.637Z,17.33
2023-05-03T09:49:40.500Z,16.02
2023-05-03T09:52:09.576Z,16.25
2023-05-03T09:54:38.005Z,15.20
2023-05-03T09:57:07.536Z,12.57
2023-05-03T09:59:37.031Z,12.93
2023-05-03T10:02:07.680Z,13.05
2023-05-03T10:04:44.212Z,12.05
2023-05-03T10:07:15.436Z,12.32
2023-05-03T10:09:45.681Z,11.70
2023-05-03T10:12:17.346Z,11.88
2023-05-03T10:14:47.676Z,12.75
2023-05-03T10:17:20.066Z,12.43
2023-05-03T10:19:53.403Z,11.90
2023-05-03T10:22:21.373Z,11.50
2023-05-03T10:25:12.638Z,10.98
2023-05-03T10:27:52.675Z,10.63
2023-05-03T10:30:32.692Z,9.95
2023-05-03T10:33:01.461Z,10.25
2023-05-03T10:35:31.468Z,11.57
2023-05-03T10:37:59.654Z,9.73
2023-05-03T10:40:42.993Z,9.43
2023-05-03T10:43:44.721Z,11.50
2023-05-03T10:46:45.402Z,9.48
2023-05-03T10:49:16.881Z,8.52
2023-05-03T10:51:46.351Z,9.02
2023-05-03T10:54:14.492Z,9.60
2023-05-03T10:56:53.769Z,9.07
2023-05-03T10:59:23.363Z,8.80
2023-05-03T11:01:53.627Z,9.65
2023-05-03T11:04:35.253Z,8.52
2023-05-03T11:07:04.752Z,8.18
2023-05-03T11:09:34.534Z,7.72
2023-05-03T11:12:07.216Z,6.30
2023-05-03T11:14:35.233Z,8.25
2023-05-03T11:17:03.690Z,7.03
2023-05-03T11:19:31.765Z,6.75
2023-05-03T11:22:00.091Z,8.18
2023-05-03T11:24:30.006Z,7.30
2023-05-03T11:26:58.380Z,7.50
2023-05-03T11:29:27.272Z,6.53
2023-05-03T11:31:55.425Z,5.57
2023-05-03T11:34:23.475Z,7.00
2023-05-03T11:36:51.463Z,6.68
2023-05-03T11:39:21.017Z,5.03
2023-05-03T11:42:04.709Z,5.90
2023-05-03T11:44:32.831Z,6.40
2023-05-03T11:47:01.522Z,5.78
2023-05-03T11:49:29.738Z,6.38
2023-05-03T11:51:57.964Z,4.35
2023-05-03T11:54:27.839Z,4.75
2023-05-03T11:57:00.149Z,5.25
2023-05-03T11:59:40.645Z,5.72
2023-05-03T12:02:10.485Z,4.95
2023-05-03T12:04:41.575Z,4.10
2023-05-03T12:07:11.727Z,4.10
2023-05-03T12:09:42.028Z,4.75
2023-05-03T12:12:24.075Z,3.20
2023-05-03T12:15:02.679Z,3.58
2023-05-03T12:17:44.890Z,4.00
2023-05-03T12:22:51.846Z,4.57
2023-05-03T12:25:21.759Z,3.90
2023-05-03T12:28:12.800Z,4.18
2023-05-03T12:30:45.818Z,3.28
2023-05-03T12:33:16.333Z,3.38
2023-05-03T12:35:47.515Z,3.78
2023-05-03T12:38:17.446Z,3.20
2023-05-03T12:40:47.042Z,3.17
2023-05-03T12:43:15.406Z,2.70
2023-05-03T12:45:52.224Z,2.65
2023-05-03T12:48:25.047Z,3.30
2023-05-03T12:51:00.795Z,2.88
2023-05-03T12:53:46.788Z,3.42
2023-05-03T12:56:15.588Z,3.28
2023-05-03T12:59:11.099Z,3.25
2023-05-03T13:04:36.354Z,3.30
2023-05-03T13:06:58.867Z,3.10
2023-05-03T13:09:37.642Z,3.35
2023-05-03T13:12:18.193Z,2.47
2023-05-03T13:14:46.205Z,2.55
2023-05-03T13:17:16.033Z,3.10
2023-05-03T13:19:44.815Z,2.00
2023-05-03T13:22:13.051Z,2.30
2023-05-03T13:24:42.249Z,3.13
2023-05-03T13:27:11.531Z,2.42
2023-05-03T13:29:39.652Z,2.80
2023-05-03T13:32:08.149Z,2.47
2023-05-03T13:34:37.924Z,2.60
2023-05-03T13:37:06.050Z,2.42
2023-05-03T13:39:33.998Z,2.95
2023-05-03T13:42:02.439Z,2.63
2023-05-03T13:44:30.410Z,2.50
2023-05-03T13:46:58.472Z,2.58
2023-05-03T13:49:26.527Z,2.72
2023-05-03T13:51:55.918Z,2.55
2023-05-03T13:54:23.909Z,2.20
2023-05-03T13:56:52.112Z,2.75
2023-05-03T13:59:20.178Z,2.65
2023-05-03T14:01:48.662Z,2.38
2023-05-03T14:04:16.752Z,2.20
2023-05-03T14:06:44.858Z,2.30
2023-05-03T14:09:14.369Z,2.47
2023-05-03T14:11:42.520Z,2.58
2023-05-03T14:14:10.474Z,2.50
2023-05-03T14:16:41.268Z,2.42
2023-05-03T14:19:11.786Z,2.92
2023-05-03T14:21:40.084Z,2.85
2023-05-03T14:24:08.178Z,2.85
2023-05-03T14:26:38.050Z,2.50
2023-05-03T14:29:06.457Z,2.67
2023-05-03T14:31:34.671Z,2.35
2023-05-03T14:34:02.739Z,2.03
2023-05-03T14:36:36.034Z,3.58
2023-05-03T14:39:05.071Z,2.20
2023-05-03T14:41:33.474Z,2.38
2023-05-03T14:44:02.866Z,2.38
2023-05-03T14:46:31.308Z,2.58
2023-05-03T14:48:59.476Z,2.28
2023-05-03T14:51:27.951Z,3.28
2023-05-03T14:53:55.946Z,2.78
2023-05-03T14:56:23.873Z,2.75
2023-05-03T14:58:51.888Z,2.55
2023-05-03T15:01:21.655Z,2.55
2023-05-03T15:03:49.736Z,2.60
2023-05-03T15:06:24.031Z,3.25
2023-05-03T15:08:52.531Z,3.08
2023-05-03T15:11:21.143Z,3.33
2023-05-03T15:13:49.189Z,3.50
2023-05-03T15:16:17.290Z,3.00
2023-05-03T15:18:48.418Z,3.22
2023-05-03T15:21:16.790Z,3.83
2023-05-03T15:23:45.098Z,4.03
2023-05-03T15:26:13.287Z,3.17
2023-05-03T15:28:41.230Z,2.88
2023-05-03T15:31:09.239Z,2.97
2023-05-03T15:33:42.082Z,3.13
2023-05-03T15:36:13.187Z,2.65
2023-05-03T15:38:41.883Z,3.60
2023-05-03T15:41:09.835Z,2.63
2023-05-03T15:43:37.806Z,3.42
2023-05-03T15:46:06.781Z,3.53
2023-05-03T15:48:34.754Z,4.15
2023-05-03T15:51:02.744Z,3.22
2023-05-03T15:53:32.031Z,4.85
2023-05-03T15:56:02.534Z,3.30
2023-05-03T15:58:30.611Z,3.50
2023-05-03T16:00:59.409Z,3.30
2023-05-03T16:03:28.756Z,3.63
2023-05-03T16:05:57.311Z,3.60
2023-05-03T16:08:26.421Z,3.22
2023-05-03T16:10:55.847Z,2.90
2023-05-03T16:13:23.787Z,3.75
2023-05-03T16:15:53.052Z,3.80
2023-05-03T16:18:21.054Z,3.45
2023-05-03T16:20:49.422Z,3.35
2023-05-03T16:23:17.437Z,3.75
2023-05-03T16:25:45.385Z,3.40
2023-05-03T16:28:14.846Z,3.13
2023-05-03T16:30:42.928Z,3.50
2023-05-03T16:33:10.932Z,2.92
2023-05-03T16:35:38.858Z,3.30
2023-05-03T16:38:07.353Z,3.72
2023-05-03T16:40:35.515Z,3.90
2023-05-03T16:43:03.924Z,3.63
2023-05-03T16:45:33.390Z,3.30
2023-05-03T16:48:04.408Z,2.90
2023-05-03T16:50:33.505Z,3.78
2023-05-03T16:53:01.453Z,3.28
2023-05-03T16:55:29.463Z,3.28
2023-05-03T16:57:57.411Z,2.80
2023-05-03T17:00:25.408Z,3.60
2023-05-03T17:02:54.866Z,2.55
2023-05-03T17:05:24.152Z,3.08
2023-05-03T17:07:52.116Z,3.03
2023-05-03T17:10:20.205Z,3.40
2023-05-03T17:12:48.446Z,3.45
2023-05-03T17:15:16.935Z,3.17
2023-05-03T17:17:44.946Z,2.92
2023-05-03T17:20:14.748Z,3.00
2023-05-03T17:22:42.715Z,3.08
2023-05-03T17:25:11.216Z,2.38
2023-05-03T17:27:39.211Z,2.92
2023-05-03T17:30:09.680Z,2.22
2023-05-03T17:32:37.722Z,3.42
2023-05-03T17:35:06.912Z,2.42
2023-05-03T17:37:36.328Z,3.47
2023-05-03T17:40:06.713Z,3.58
2023-05-03T17:42:35.032Z,2.85
2023-05-03T17:45:03.332Z,3.38
2023-05-03T17:47:31.608Z,2.88
2023-05-03T17:49:59.603Z,3.10
2023-05-03T17:52:27.737Z,2.55
2023-05-03T17:54:58.121Z,2.20
2023-05-03T17:57:26.620Z,2.17
2023-05-03T17:59:54.537Z,1.60
2023-05-03T18:02:22.832Z,2.00
2023-05-03T18:04:50.804Z,2.10
2023-05-03T18:07:18.758Z,1.98
2023-05-03T18:09:46.845Z,2.10
2023-05-03T18:12:16.162Z,1.88
2023-05-03T18:14:44.136Z,1.40
2023-05-03T18:17:12.100Z,2.38
2023-05-03T18:19:44.320Z,2.00
2023-05-03T18:22:12.514Z,2.58
2023-05-03T18:24:40.475Z,2.20
2023-05-03T18:27:09.198Z,2.00
2023-05-03T18:29:38.975Z,1.83
2023-05-03T18:32:06.980Z,1.98
2023-05-03T18:34:37.497Z,2.10
2023-05-03T18:37:05.452Z,2.00
2023-05-03T18:39:33.783Z,2.28
2023-05-03T18:42:01.794Z,2.10
2023-05-03T18:44:31.960Z,2.20
2023-05-03T18:47:01.588Z,2.72
2023-05-03T18:49:29.668Z,2.25
2023-05-03T18:51:58.093Z,2.72
2023-05-03T18:54:26.060Z,2.33
2023-05-03T18:56:54.126Z,1.90
2023-05-03T18:59:22.056Z,2.10
2023-05-03T19:01:50.971Z,1.77
2023-05-03T19:04:20.350Z,1.80
2023-05-03T19:06:48.407Z,2.17
2023-05-03T19:09:16.457Z,1.83
2023-05-03T19:11:45.025Z,2.17
2023-05-03T19:14:13.091Z,2.50
2023-05-03T19:16:41.203Z,1.70
2023-05-03T19:19:10.186Z,1.88
2023-05-03T19:21:42.323Z,1.90
2023-05-03T19:24:11.674Z,1.98
2023-05-03T19:26:39.721Z,2.00
2023-05-03T19:29:08.044Z,2.03
2023-05-03T19:31:36.198Z,2.05
2023-05-03T19:34:04.467Z,2.03
2023-05-03T19:36:32.416Z,2.08
2023-05-03T19:39:03.559Z,2.15
2023-05-03T19:41:31.533Z,2.15
2023-05-03T19:43:59.586Z,2.10
2023-05-03T19:46:28.816Z,2.20
2023-05-03T19:48:56.855Z,2.13
2023-05-03T19:51:24.764Z,2.35
2023-05-03T19:53:52.725Z,2.58
2023-05-03T19:56:22.131Z,3.00
2023-05-03T19:58:51.816Z,3.13
2023-05-03T20:01:19.761Z,2.78
2023-05-03T20:03:47.841Z,2.45
2023-05-03T20:06:16.997Z,2.53
2023-05-03T20:08:45.006Z,3.15
2023-05-03T20:11:12.970Z,3.30
2023-05-03T20:13:42.558Z,2.88
2023-05-03T20:16:10.822Z,2.83
2023-05-03T20:18:39.678Z,2.50
2023-05-03T20:21:07.645Z,2.50
2023-05-03T20:23:35.605Z,2.53
2023-05-03T20:26:03.585Z,2.40
2023-05-03T20:28:32.664Z,2.30
2023-05-03T20:31:02.069Z,2.53
2023-05-03T20:33:30.007Z,2.85
2023-05-03T20:35:57.927Z,2.72
2023-05-03T20:38:25.893Z,1.90
2023-05-03T20:40:53.862Z,1.88
2023-05-03T20:43:21.833Z,2.03
2023-05-03T20:45:49.868Z,2.40
2023-05-03T20:48:19.347Z,2.47
2023-05-03T20:50:47.274Z,2.40
2023-05-03T20:53:15.226Z,2.33
2023-05-03T20:55:43.154Z,2.75
2023-05-03T20:58:12.338Z,2.28
2023-05-03T21:00:40.394Z,2.63
2023-05-03T21:03:08.516Z,2.47
2023-05-03T21:05:37.946Z,2.50
2023-05-03T21:08:06.043Z,3.08
2023-05-03T21:10:33.923Z,2.65
2023-05-03T21:13:01.883Z,2.50
2023-05-03T21:15:29.904Z,2.33
2023-05-03T21:17:58.052Z,2.55
2023-05-03T21:20:26.045Z,2.60
2023-05-03T21:22:55.377Z,2.45
2023-05-03T21:25:23.527Z,2.33
2023-05-03T21:27:51.477Z,3.00
2023-05-03T21:30:21.076Z,2.65
2023-05-03T21:32:49.778Z,3.60
2023-05-03T21:35:18.225Z,2.47
2023-05-03T21:37:47.391Z,3.47
2023-05-03T21:40:17.623Z,2.38
2023-05-03T21:42:45.636Z,3.10
2023-05-03T21:45:15.094Z,2.70
2023-05-03T21:47:43.067Z,2.67
2023-05-03T21:50:12.650Z,2.70
2023-05-03T21:52:41.580Z,2.97
2023-05-03T21:55:10.961Z,3.03
2023-05-03T21:57:40.335Z,2.70
2023-05-03T22:00:14.292Z,2.88
2023-05-03T22:02:42.300Z,2.72
2023-05-03T22:05:10.752Z,2.55
2023-05-03T22:07:38.836Z,3.38
2023-05-03T22:10:07.842Z,2.75
2023-05-03T22:12:35.852Z,2.70
2023-05-03T22:15:05.816Z,2.88
2023-05-03T22:17:33.966Z,2.83
2023-05-03T22:20:01.975Z,2.72
2023-05-03T22:22:30.020Z,3.25
2023-05-03T22:25:01.026Z,2.58
2023-05-03T22:27:29.151Z,3.38
2023-05-03T22:29:57.248Z,3.20
2023-05-03T22:32:26.724Z,2.75
2023-05-03T22:34:55.147Z,3.10
2023-05-03T22:37:23.101Z,3.45
2023-05-03T22:39:51.109Z,3.08
2023-05-03T22:42:19.030Z,3.05
2023-05-03T22:44:47.038Z,3.17
2023-05-03T22:47:15.751Z,3.00
2023-05-03T22:49:45.150Z,2.75
2023-05-03T22:52:13.107Z,3.08
2023-05-03T22:54:41.845Z,2.50
2023-05-03T22:57:11.206Z,3.35
2023-05-03T22:59:39.224Z,2.97
2023-05-03T23:02:07.134Z,2.88
2023-05-03T23:04:35.078Z,2.63
2023-05-03T23:07:04.378Z,2.65
2023-05-03T23:09:32.325Z,3.38
2023-05-03T23:12:00.607Z,2.90
2023-05-03T23:14:28.582Z,3.08
2023-05-03T23:16:56.593Z,3.28
2023-05-03T23:19:24.760Z,3.15
2023-05-03T23:21:52.687Z,3.35
2023-05-03T23:24:22.013Z,2.90
2023-05-03T23:26:49.974Z,3.20
2023-05-03T23:29:18.399Z,3.05
2023-05-03T23:31:46.942Z,2.88
2023-05-03T23:34:15.222Z,2.75
2023-05-03T23:36:43.160Z,3.28
2023-05-03T23:39:11.188Z,3.05
2023-05-03T23:41:40.638Z,3.05
2023-05-03T23:44:08.550Z,2.33
2023-05-03T23:46:36.616Z,3.08
2023-05-03T23:49:04.692Z,2.85
2023-05-03T23:51:32.635Z,2.75
2023-05-03T23:54:00.549Z,3.00
2023-05-03T23:56:28.671Z,3.00
2023-05-03T23:58:57.986Z,3.10
